createdAt,value
2023-03-07T00:01:03.300Z,12.72
2023-03-07T00:03:31.193Z,12.74
2023-03-07T00:06:05.030Z,12.74
2023-03-07T00:08:33.450Z,12.70
2023-03-07T00:11:05.069Z,12.71
2023-03-07T00:13:33.838Z,12.67
2023-03-07T00:16:03.584Z,12.70
2023-03-07T00:18:32.189Z,12.76
2023-03-07T00:21:01.193Z,12.72
2023-03-07T00:23:30.978Z,12.72
2023-03-07T00:26:00.986Z,12.76
2023-03-07T00:28:29.225Z,12.69
2023-03-07T00:31:00.710Z,12.73
2023-03-07T00:33:29.346Z,12.73
2023-03-07T00:35:59.078Z,12.75
2023-03-07T00:38:27.467Z,12.76
2023-03-07T00:41:01.362Z,12.79
2023-03-07T00:43:30.598Z,12.78
2023-03-07T00:45:59.102Z,12.72
2023-03-07T00:48:27.501Z,12.71
2023-03-07T00:50:55.723Z,12.69
2023-03-07T00:53:23.669Z,12.71
2023-03-07T00:55:56.272Z,12.69
2023-03-07T00:58:26.649Z,12.73
2023-03-07T01:00:54.588Z,12.73
2023-03-07T01:03:23.937Z,12.75
2023-03-07T01:05:52.950Z,12.77
2023-03-07T01:08:21.843Z,12.76
2023-03-07T01:10:49.767Z,12.77
2023-03-07T01:13:20.265Z,12.81
2023-03-07T01:15:49.992Z,12.79
2023-03-07T01:18:17.894Z,12.79
2023-03-07T01:20:46.120Z,12.80
2023-03-07T01:23:14.122Z,12.77
2023-03-07T01:25:43.350Z,12.68
2023-03-07T01:28:14.737Z,12.59
2023-03-07T01:30:43.080Z,12.54
2023-03-07T01:33:12.355Z,12.47
2023-03-07T01:35:41.521Z,12.47
2023-03-07T01:38:10.155Z,12.46
2023-03-07T01:40:39.685Z,12.48
2023-03-07T01:43:32.775Z,12.50
2023-03-07T01:46:29.217Z,12.54
2023-03-07T01:49:01.766Z,12.56
2023-03-07T01:51:30.921Z,12.62
2023-03-07T01:54:01.818Z,12.62
2023-03-07T01:56:31.505Z,12.60
2023-03-07T01:58:59.551Z,12.52
2023-03-07T02:01:28.491Z,12.40
2023-03-07T02:04:04.143Z,12.19
2023-03-07T02:06:36.130Z,11.98
2023-03-07T02:09:06.549Z,11.81
2023-03-07T02:11:34.858Z,11.70
2023-03-07T02:14:02.755Z,11.60
2023-03-07T02:16:30.816Z,11.53
2023-03-07T02:19:00.421Z,11.47
2023-03-07T02:21:40.696Z,11.48
2023-03-07T02:24:20.250Z,11.47
2023-03-07T02:26:53.322Z,11.41
2023-03-07T02:29:21.870Z,11.38
2023-03-07T02:31:49.744Z,11.34
2023-03-07T02:34:22.416Z,11.27
2023-03-07T02:36:54.468Z,11.24
2023-03-07T02:39:26.187Z,11.23
2023-03-07T02:41:57.955Z,11.25
2023-03-07T02:44:26.036Z,11.28
2023-03-07T02:46:53.917Z,11.33
2023-03-07T02:49:21.976Z,11.38
2023-03-07T02:51:49.903Z,11.44
2023-03-07T02:54:17.792Z,11.48
2023-03-07T02:56:45.814Z,11.48
2023-03-07T02:59:15.162Z,11.48
2023-03-07T03:01:43.241Z,11.48
2023-03-07T03:04:11.234Z,11.48
2023-03-07T03:06:39.252Z,11.45
2023-03-07T03:09:07.195Z,11.44
2023-03-07T03:11:35.195Z,11.46
2023-03-07T03:14:03.146Z,11.39
2023-03-07T03:16:32.542Z,11.38
2023-03-07T03:19:00.834Z,11.35
2023-03-07T03:21:29.069Z,11.21
2023-03-07T03:23:57.055Z,11.11
2023-03-07T03:26:25.448Z,11.08
2023-03-07T03:28:55.672Z,11.08
2023-03-07T03:31:24.894Z,11.15
2023-03-07T03:33:55.081Z,11.18
2023-03-07T03:36:25.684Z,11.23
2023-03-07T03:38:53.991Z,11.24
2023-03-07T03:41:22.018Z,11.27
2023-03-07T03:43:50.290Z,11.29
2023-03-07T03:46:19.738Z,11.32
2023-03-07T03:48:53.413Z,11.35
2023-03-07T03:51:23.796Z,11.35
2023-03-07T03:53:52.394Z,11.38
2023-03-07T03:56:22.353Z,11.38
2023-03-07T03:58:51.735Z,11.37
2023-03-07T04:01:21.476Z,11.32
2023-03-07T04:03:50.906Z,11.32
2023-03-07T04:06:21.219Z,11.31
2023-03-07T04:08:53.038Z,11.26
2023-03-07T04:11:21.644Z,11.22
2023-03-07T04:13:49.750Z,11.19
2023-03-07T04:16:18.531Z,11.17
2023-03-07T04:18:46.879Z,11.13
2023-03-07T04:21:14.815Z,11.08
2023-03-07T04:23:42.942Z,11.06
2023-03-07T04:26:12.762Z,11.04
2023-03-07T04:28:45.652Z,11.04
2023-03-07T04:31:15.584Z,11.01
2023-03-07T04:33:44.588Z,11.00
2023-03-07T04:36:12.780Z,11.02
2023-03-07T04:38:42.200Z,11.02
2023-03-07T04:41:10.166Z,11.04
2023-03-07T04:43:39.539Z,11.04
2023-03-07T04:46:07.881Z,11.03
2023-03-07T04:48:35.812Z,11.04
2023-03-07T04:51:04.265Z,11.05
2023-03-07T04:53:32.509Z,11.05
2023-03-07T04:56:00.883Z,11.03
2023-03-07T04:58:29.164Z,10.98
2023-03-07T05:00:59.018Z,10.92
2023-03-07T05:03:27.832Z,10.89
2023-03-07T05:05:56.065Z,10.83
2023-03-07T05:08:24.500Z,10.78
2023-03-07T05:10:52.389Z,10.74
2023-03-07T05:13:20.334Z,10.72
2023-03-07T05:15:52.212Z,10.69
2023-03-07T05:18:22.485Z,10.68
2023-03-07T05:20:51.681Z,10.64
2023-03-07T05:23:20.622Z,10.60
2023-03-07T05:25:48.577Z,10.57
2023-03-07T05:28:17.450Z,10.52
2023-03-07T05:30:45.669Z,10.48
2023-03-07T05:33:15.925Z,10.45
2023-03-07T05:35:45.602Z,10.43
2023-03-07T05:38:14.144Z,10.41
2023-03-07T05:40:42.119Z,10.37
2023-03-07T05:43:10.391Z,10.37
2023-03-07T05:45:38.292Z,10.37
2023-03-07T05:48:06.781Z,10.36
2023-03-07T05:50:34.563Z,10.38
2023-03-07T05:53:04.467Z,10.38
2023-03-07T05:55:32.419Z,10.37
2023-03-07T05:58:00.318Z,10.39
2023-03-07T06:00:28.585Z,10.40
2023-03-07T06:02:56.519Z,10.38
2023-03-07T06:05:25.523Z,10.37
2023-03-07T06:07:53.527Z,10.38
2023-03-07T06:10:23.672Z,10.37
2023-03-07T06:12:52.264Z,10.39
2023-03-07T06:15:20.655Z,10.38
2023-03-07T06:17:49.025Z,10.38
2023-03-07T06:20:17.235Z,10.39
2023-03-07T06:22:45.083Z,10.40
2023-03-07T06:25:13.127Z,10.38
2023-03-07T06:27:42.874Z,10.39
2023-03-07T06:30:13.774Z,10.41
2023-03-07T06:32:41.912Z,10.42
2023-03-07T06:35:10.991Z,10.47
2023-03-07T06:37:39.002Z,10.49
2023-03-07T06:40:09.816Z,10.50
2023-03-07T06:42:38.354Z,10.50
2023-03-07T06:45:08.869Z,10.50
2023-03-07T06:47:37.121Z,10.50
2023-03-07T06:50:05.905Z,10.51
2023-03-07T06:52:34.673Z,10.51
2023-03-07T06:55:02.963Z,10.50
2023-03-07T06:57:31.141Z,10.49
2023-03-07T06:59:59.159Z,10.49
2023-03-07T07:02:28.762Z,10.46
2023-03-07T07:05:00.166Z,10.41
2023-03-07T07:07:29.168Z,10.35
2023-03-07T07:09:57.253Z,10.34
2023-03-07T07:12:26.871Z,10.29
2023-03-07T07:14:54.926Z,10.24
2023-03-07T07:17:22.853Z,10.18
2023-03-07T07:19:52.537Z,10.16
2023-03-07T07:22:20.580Z,10.11
2023-03-07T07:24:48.792Z,10.07
2023-03-07T07:27:16.811Z,10.05
2023-03-07T07:29:44.742Z,10.01
2023-03-07T07:32:12.811Z,9.95
2023-03-07T07:34:40.794Z,9.88
2023-03-07T07:37:10.187Z,9.80
2023-03-07T07:39:40.875Z,9.76
2023-03-07T07:42:09.074Z,9.71
2023-03-07T07:44:37.148Z,9.67
2023-03-07T07:47:05.199Z,9.59
2023-03-07T07:49:33.340Z,9.55
2023-03-07T07:52:01.286Z,9.52
2023-03-07T07:54:31.095Z,9.48
2023-03-07T07:56:59.040Z,9.44
2023-03-07T07:59:27.132Z,9.42
2023-03-07T08:01:55.169Z,9.40
2023-03-07T08:04:23.231Z,9.36
2023-03-07T08:06:51.132Z,9.37
2023-03-07T08:09:19.528Z,9.40
2023-03-07T08:11:48.823Z,9.40
2023-03-07T08:14:16.948Z,9.38
2023-03-07T08:16:44.910Z,9.35
2023-03-07T08:19:12.843Z,9.34
2023-03-07T08:21:40.717Z,9.29
2023-03-07T08:24:08.634Z,9.29
2023-03-07T08:26:36.707Z,9.27
2023-03-07T08:29:06.043Z,9.28
2023-03-07T08:31:33.877Z,9.27
2023-03-07T08:34:01.814Z,9.28
2023-03-07T08:36:29.741Z,9.27
2023-03-07T08:38:57.680Z,9.25
2023-03-07T08:41:25.605Z,9.26
2023-03-07T08:43:54.805Z,9.30
2023-03-07T08:46:25.384Z,9.35
2023-03-07T08:48:53.740Z,9.41
2023-03-07T08:51:21.657Z,9.44
2023-03-07T08:53:49.507Z,9.47
2023-03-07T08:56:19.256Z,9.53
2023-03-07T08:58:47.646Z,9.61
2023-03-07T09:01:15.556Z,9.67
2023-03-07T09:03:45.124Z,9.73
2023-03-07T09:06:18.562Z,9.85
2023-03-07T09:08:47.391Z,9.96
2023-03-07T09:11:15.942Z,9.98
2023-03-07T09:13:51.806Z,9.99
2023-03-07T09:16:22.043Z,10.02
2023-03-07T09:18:51.811Z,10.03
2023-03-07T09:21:19.956Z,10.03
2023-03-07T09:23:48.240Z,10.06
2023-03-07T09:26:16.717Z,10.06
2023-03-07T09:28:44.928Z,10.03
2023-03-07T09:31:15.040Z,10.02
2023-03-07T09:33:46.552Z,10.02
2023-03-07T09:36:18.161Z,10.07
2023-03-07T09:38:47.094Z,10.13
2023-03-07T09:41:43.825Z,10.19
2023-03-07T09:44:22.168Z,10.22
2023-03-07T09:47:04.470Z,10.28
2023-03-07T09:49:40.109Z,10.34
2023-03-07T09:52:14.632Z,10.41
2023-03-07T09:54:47.040Z,10.47
2023-03-07T09:57:21.027Z,10.49
2023-03-07T09:59:53.732Z,10.52
2023-03-07T10:02:29.641Z,10.55
2023-03-07T10:05:04.546Z,10.58
2023-03-07T10:07:35.666Z,10.58
2023-03-07T10:10:07.330Z,10.58
2023-03-07T10:13:04.725Z,10.58
2023-03-07T10:15:45.572Z,10.55
2023-03-07T10:18:25.975Z,10.58
2023-03-07T10:21:04.260Z,10.68
2023-03-07T10:24:00.866Z,10.75
2023-03-07T10:26:33.663Z,10.79
2023-03-07T10:29:11.302Z,10.80
2023-03-07T10:31:43.078Z,10.79
2023-03-07T10:34:26.695Z,10.83
2023-03-07T10:37:08.334Z,10.86
2023-03-07T10:39:43.668Z,10.92
2023-03-07T10:42:13.256Z,10.97
2023-03-07T10:44:42.201Z,11.04
2023-03-07T10:47:19.972Z,11.14
2023-03-07T10:49:49.292Z,11.25
2023-03-07T10:52:30.616Z,11.40
2023-03-07T10:55:37.968Z,11.61
2023-03-07T10:58:21.717Z,11.78
2023-03-07T11:01:15.004Z,11.98
2023-03-07T11:03:53.478Z,12.17
2023-03-07T11:06:39.329Z,12.40
2023-03-07T11:09:27.399Z,12.62
2023-03-07T11:11:59.746Z,12.77
2023-03-07T11:14:29.206Z,12.93
2023-03-07T11:16:59.374Z,13.05
2023-03-07T11:19:36.718Z,13.15
2023-03-07T11:22:07.006Z,13.24
2023-03-07T11:24:39.274Z,13.34
2023-03-07T11:27:22.464Z,13.40
2023-03-07T11:30:17.071Z,13.42
2023-03-07T11:32:52.453Z,13.49
2023-03-07T11:35:23.344Z,13.63
2023-03-07T11:38:03.202Z,13.83
2023-03-07T11:40:33.348Z,13.90
2023-03-07T11:43:12.744Z,13.93
2023-03-07T11:45:48.355Z,13.96
2023-03-07T11:48:28.262Z,14.02
2023-03-07T11:50:58.576Z,14.12
2023-03-07T11:53:41.039Z,14.18
2023-03-07T11:56:22.715Z,14.14
2023-03-07T11:59:28.958Z,14.16
2023-03-07T12:02:00.225Z,14.16
2023-03-07T12:04:54.783Z,14.13
2023-03-07T12:07:41.188Z,14.16
2023-03-07T12:10:22.467Z,14.24
2023-03-07T12:13:03.362Z,14.34
2023-03-07T12:15:41.836Z,14.39
2023-03-07T12:18:39.893Z,14.43
2023-03-07T12:21:25.073Z,14.46
2023-03-07T12:23:58.095Z,14.49
2023-03-07T12:26:33.837Z,14.50
2023-03-07T12:29:07.947Z,14.52
2023-03-07T12:31:39.122Z,14.53
2023-03-07T12:34:14.156Z,14.49
2023-03-07T12:36:49.173Z,14.42
2023-03-07T12:39:21.309Z,14.40
2023-03-07T12:41:58.043Z,14.45
2023-03-07T12:44:35.641Z,14.58
2023-03-07T12:47:16.478Z,14.78
2023-03-07T12:49:52.646Z,14.98
2023-03-07T12:52:32.317Z,15.19
2023-03-07T12:55:05.866Z,15.31
2023-03-07T12:57:38.657Z,15.37
2023-03-07T13:00:11.758Z,15.39
2023-03-07T13:02:44.692Z,15.52
2023-03-07T13:05:21.608Z,15.65
2023-03-07T13:07:51.521Z,15.75
2023-03-07T13:10:22.580Z,15.76
2023-03-07T13:12:52.025Z,15.74
2023-03-07T13:15:59.388Z,15.72
2023-03-07T13:18:29.865Z,15.73
2023-03-07T13:21:15.457Z,15.72
2023-03-07T13:23:44.811Z,15.64
2023-03-07T13:26:14.693Z,15.45
2023-03-07T13:28:45.628Z,15.24
2023-03-07T13:31:29.452Z,14.97
2023-03-07T13:33:57.877Z,14.89
2023-03-07T13:36:34.544Z,14.98
2023-03-07T13:39:04.565Z,15.13
2023-03-07T13:41:47.616Z,15.36
2023-03-07T13:44:31.593Z,15.43
2023-03-07T13:47:05.149Z,15.37
2023-03-07T13:49:38.859Z,15.29
2023-03-07T13:52:32.556Z,15.24
2023-03-07T13:55:05.386Z,15.27
2023-03-07T13:57:41.849Z,15.28
2023-03-07T14:00:39.468Z,15.27
2023-03-07T14:03:29.038Z,15.32
2023-03-07T14:06:00.699Z,15.44
2023-03-07T14:08:33.012Z,15.60
2023-03-07T14:11:02.555Z,15.73
2023-03-07T14:14:05.863Z,15.87
2023-03-07T14:16:50.691Z,15.95
2023-03-07T14:19:39.114Z,16.00
2023-03-07T14:22:19.622Z,16.00
2023-03-07T14:25:11.701Z,15.75
2023-03-07T14:27:52.476Z,15.56
2023-03-07T14:30:21.572Z,15.85
2023-03-07T14:32:49.960Z,16.34
2023-03-07T14:35:34.816Z,17.03
2023-03-07T14:38:03.772Z,17.66
2023-03-07T14:40:37.643Z,18.02
2023-03-07T14:43:26.726Z,18.36
2023-03-07T14:46:03.932Z,18.40
2023-03-07T14:48:48.576Z,18.04
2023-03-07T14:51:19.292Z,18.11
2023-03-07T14:53:47.631Z,18.36
2023-03-07T14:56:22.763Z,18.59
2023-03-07T14:58:56.153Z,19.05
2023-03-07T15:01:24.058Z,19.75
2023-03-07T15:03:54.379Z,20.42
2023-03-07T15:06:24.509Z,20.72
2023-03-07T15:08:53.207Z,20.96
2023-03-07T15:11:33.135Z,21.42
2023-03-07T15:14:05.738Z,21.84
2023-03-07T15:16:38.129Z,22.12
2023-03-07T15:19:13.252Z,22.15
2023-03-07T15:21:45.933Z,22.08
2023-03-07T15:24:19.492Z,21.78
2023-03-07T15:26:51.249Z,21.64
2023-03-07T15:29:23.980Z,21.60
2023-03-07T15:31:54.968Z,21.52
2023-03-07T15:34:26.190Z,21.50
2023-03-07T15:36:54.872Z,21.69
2023-03-07T15:39:34.480Z,21.28
2023-03-07T15:42:05.788Z,20.60
2023-03-07T15:44:36.433Z,19.92
2023-03-07T15:47:07.555Z,19.28
2023-03-07T15:49:41.941Z,18.72
2023-03-07T15:52:22.009Z,18.20
2023-03-07T15:54:52.772Z,17.91
2023-03-07T15:57:23.211Z,17.79
2023-03-07T15:59:57.059Z,17.71
2023-03-07T16:02:46.559Z,17.55
2023-03-07T16:05:38.208Z,17.29
2023-03-07T16:08:12.889Z,17.02
2023-03-07T16:10:50.586Z,16.71
2023-03-07T16:13:22.197Z,16.32
2023-03-07T16:16:02.596Z,16.12
2023-03-07T16:18:32.268Z,16.14
2023-03-07T16:21:00.320Z,16.20
2023-03-07T16:23:31.491Z,16.25
2023-03-07T16:26:03.761Z,16.15
2023-03-07T16:28:32.152Z,16.02
2023-03-07T16:31:01.446Z,15.92
2023-03-07T16:33:29.410Z,15.75
2023-03-07T16:35:57.428Z,15.56
2023-03-07T16:38:25.488Z,15.41
2023-03-07T16:40:53.481Z,15.25
2023-03-07T16:43:34.515Z,15.08
2023-03-07T16:46:06.659Z,14.86
2023-03-07T16:48:35.049Z,14.69
2023-03-07T16:51:03.426Z,14.54
2023-03-07T16:53:31.414Z,14.43
2023-03-07T16:56:00.275Z,14.36
2023-03-07T16:58:30.605Z,14.25
2023-03-07T17:00:59.234Z,14.13
2023-03-07T17:03:29.838Z,14.07
2023-03-07T17:05:58.629Z,14.01
2023-03-07T17:08:27.047Z,13.95
2023-03-07T17:10:54.913Z,13.89
2023-03-07T17:13:22.964Z,13.84
2023-03-07T17:15:51.003Z,13.76
2023-03-07T17:18:19.165Z,13.69
2023-03-07T17:20:48.529Z,13.64
2023-03-07T17:23:16.536Z,13.57
2023-03-07T17:25:44.417Z,13.50
2023-03-07T17:28:15.556Z,13.41
2023-03-07T17:30:45.635Z,13.35
2023-03-07T17:33:15.114Z,13.25
2023-03-07T17:35:43.352Z,13.16
2023-03-07T17:38:12.890Z,13.08
2023-03-07T17:40:41.246Z,13.01
2023-03-07T17:43:09.327Z,12.92
2023-03-07T17:45:39.627Z,12.86
2023-03-07T17:48:07.905Z,12.78
2023-03-07T17:50:36.493Z,12.74
2023-03-07T17:53:04.544Z,12.66
2023-03-07T17:55:34.152Z,12.56
2023-03-07T17:58:02.255Z,12.47
2023-03-07T18:00:30.209Z,12.41
2023-03-07T18:02:58.187Z,12.31
2023-03-07T18:05:38.812Z,12.20
2023-03-07T18:08:18.766Z,12.10
2023-03-07T18:10:48.149Z,11.98
2023-03-07T18:13:16.080Z,11.92
2023-03-07T18:15:46.674Z,11.83
2023-03-07T18:18:14.740Z,11.74
2023-03-07T18:20:42.691Z,11.62
2023-03-07T18:23:11.102Z,11.51
2023-03-07T18:25:39.039Z,11.43
2023-03-07T18:28:08.577Z,11.34
2023-03-07T18:30:36.556Z,11.25
2023-03-07T18:33:04.541Z,11.19
2023-03-07T18:35:33.325Z,11.09
2023-03-07T18:38:01.288Z,10.98
2023-03-07T18:40:29.363Z,10.88
2023-03-07T18:42:59.459Z,10.77
2023-03-07T18:45:29.135Z,10.65
2023-03-07T18:47:57.084Z,10.56
2023-03-07T18:50:25.147Z,10.46
2023-03-07T18:52:53.216Z,10.39
2023-03-07T18:55:21.337Z,10.30
2023-03-07T18:57:49.470Z,10.26
2023-03-07T19:00:18.148Z,10.18
2023-03-07T19:03:09.105Z,10.13
2023-03-07T19:05:43.543Z,10.09
2023-03-07T19:08:11.475Z,10.07
2023-03-07T19:10:40.256Z,10.05
2023-03-07T19:13:09.211Z,10.02
2023-03-07T19:15:37.454Z,10.02
2023-03-07T19:18:07.380Z,10.03
2023-03-07T19:20:35.522Z,10.03
2023-03-07T19:23:03.421Z,10.04
2023-03-07T19:25:32.030Z,10.07
2023-03-07T19:27:59.946Z,10.06
2023-03-07T19:30:28.998Z,10.05
2023-03-07T19:33:00.273Z,10.06
2023-03-07T19:35:29.709Z,10.06
2023-03-07T19:37:57.694Z,10.08
2023-03-07T19:40:28.718Z,10.10
2023-03-07T19:42:56.651Z,10.10
2023-03-07T19:45:24.555Z,10.13
2023-03-07T19:47:52.505Z,10.15
2023-03-07T19:50:20.641Z,10.17
2023-03-07T19:52:50.051Z,10.19
2023-03-07T19:55:18.196Z,10.20
2023-03-07T19:57:46.908Z,10.20
2023-03-07T20:00:16.035Z,10.23
2023-03-07T20:02:44.052Z,10.21
2023-03-07T20:05:11.956Z,10.22
2023-03-07T20:07:39.856Z,10.19
2023-03-07T20:10:12.383Z,10.19
2023-03-07T20:12:40.429Z,10.19
2023-03-07T20:15:09.892Z,10.19
2023-03-07T20:17:38.019Z,10.21
2023-03-07T20:20:08.328Z,10.22
2023-03-07T20:22:36.498Z,10.23
2023-03-07T20:25:04.499Z,10.27
2023-03-07T20:27:34.200Z,10.28
2023-03-07T20:30:02.769Z,10.32
2023-03-07T20:32:31.238Z,10.32
2023-03-07T20:35:03.476Z,10.34
2023-03-07T20:37:33.153Z,10.34
2023-03-07T20:40:04.555Z,10.33
2023-03-07T20:42:34.340Z,10.35
2023-03-07T20:45:02.254Z,10.35
2023-03-07T20:47:30.410Z,10.38
2023-03-07T20:49:58.528Z,10.41
2023-03-07T20:52:26.650Z,10.43
2023-03-07T20:54:54.757Z,10.48
2023-03-07T20:57:22.768Z,10.49
2023-03-07T20:59:52.129Z,10.51
2023-03-07T21:02:20.155Z,10.54
2023-03-07T21:04:49.863Z,10.56
2023-03-07T21:07:17.981Z,10.58
2023-03-07T21:09:50.888Z,10.60
2023-03-07T21:12:18.842Z,10.57
2023-03-07T21:14:47.021Z,10.56
2023-03-07T21:17:16.518Z,10.55
2023-03-07T21:19:44.689Z,10.53
2023-03-07T21:22:12.937Z,10.55
2023-03-07T21:24:41.231Z,10.55
2023-03-07T21:27:09.499Z,10.57
2023-03-07T21:29:37.601Z,10.56
2023-03-07T21:32:06.157Z,10.60
2023-03-07T21:34:35.589Z,10.61
2023-03-07T21:37:03.957Z,10.63
2023-03-07T21:39:32.159Z,10.64
2023-03-07T21:42:00.486Z,10.64
2023-03-07T21:44:28.560Z,10.64
2023-03-07T21:46:56.714Z,10.64
2023-03-07T21:49:24.607Z,10.65
2023-03-07T21:51:53.998Z,10.62
2023-03-07T21:54:22.009Z,10.64
2023-03-07T21:56:49.913Z,10.63
2023-03-07T21:59:17.800Z,10.64
2023-03-07T22:01:45.865Z,10.67
2023-03-07T22:04:14.001Z,10.68
2023-03-07T22:06:42.031Z,10.69
2023-03-07T22:09:11.350Z,10.66
2023-03-07T22:11:39.287Z,10.68
2023-03-07T22:14:07.153Z,10.67
2023-03-07T22:16:35.153Z,10.67
2023-03-07T22:19:03.015Z,10.65
2023-03-07T22:21:31.296Z,10.69
2023-03-07T22:24:00.982Z,10.68
2023-03-07T22:26:32.597Z,10.66
2023-03-07T22:29:00.716Z,10.67
2023-03-07T22:31:28.676Z,10.68
2023-03-07T22:33:56.764Z,10.65
2023-03-07T22:36:24.767Z,10.65
2023-03-07T22:38:55.407Z,10.65
2023-03-07T22:41:23.894Z,10.65
2023-03-07T22:43:54.324Z,10.68
2023-03-07T22:46:22.977Z,10.69
2023-03-07T22:48:53.920Z,10.69
2023-03-07T22:51:23.256Z,10.70
2023-03-07T22:53:51.602Z,10.68
2023-03-07T22:56:21.493Z,10.68
2023-03-07T22:58:49.789Z,10.67
2023-03-07T23:01:21.365Z,10.70
2023-03-07T23:03:49.925Z,10.72
2023-03-07T23:06:18.317Z,10.70
2023-03-07T23:08:47.184Z,10.70
2023-03-07T23:11:16.106Z,10.68
2023-03-07T23:13:44.309Z,10.71
2023-03-07T23:16:14.724Z,10.72
2023-03-07T23:18:45.033Z,10.72
2023-03-07T23:21:15.248Z,10.73
2023-03-07T23:23:43.170Z,10.72
2023-03-07T23:26:16.918Z,10.70
2023-03-07T23:28:44.894Z,10.70
2023-03-07T23:31:17.544Z,10.68
2023-03-07T23:33:47.190Z,10.65
2023-03-07T23:36:15.186Z,10.66
2023-03-07T23:38:44.427Z,10.66
2023-03-07T23:41:12.310Z,10.67
2023-03-07T23:43:40.325Z,10.67
2023-03-07T23:46:08.278Z,10.68
2023-03-07T23:48:36.135Z,10.67
2023-03-07T23:51:05.764Z,10.65
2023-03-07T23:53:33.627Z,10.65
2023-03-07T23:56:01.526Z,10.66
2023-03-07T23:58:29.526Z,10.64
